Time;durP1;ratioP1;P1;durP2;ratioP2;P2;SDS_P1;SDS_P2;PMS_P1;PMS_P2;Temp;Humidity;BMP_temperature;BMP_pressure;BME280_temperature;BME280_humidity;BME280_pressure;Samples;Min_cycle;Max_cycle;Signal;HPM_P1;HPM_P2
2022/06/14 00:01:19;;;;;;;14.88;3.70;;;;;;;9.43;100.00;102268.13;5044604;28;20365;-63
2022/06/14 00:03:46;;;;;;;17.00;3.75;;;;;;;9.35;100.00;102277.56;5046616;28;20099;-64
2022/06/14 00:06:21;;;;;;;17.73;4.00;;;;;;;9.40;100.00;102280.34;5046014;28;20029;-64
2022/06/14 00:08:47;;;;;;;15.65;3.70;;;;;;;9.40;100.00;102278.59;5046637;28;20539;-64
2022/06/14 00:11:15;;;;;;;14.63;3.70;;;;;;;9.45;100.00;102277.84;5045706;28;20049;-64
2022/06/14 00:13:42;;;;;;;18.10;4.13;;;;;;;9.45;100.00;102276.13;5045926;28;20025;-64
2022/06/14 00:16:08;;;;;;;17.30;3.90;;;;;;;9.49;100.00;102272.72;5046137;28;20060;-63
2022/06/14 00:18:34;;;;;;;16.83;4.07;;;;;;;9.49;100.00;102267.44;5044709;28;20031;-64
2022/06/14 00:20:59;;;;;;;20.35;4.07;;;;;;;9.51;100.00;102272.75;5047526;28;20025;-63
2022/06/14 00:23:25;;;;;;;15.23;3.70;;;;;;;9.46;100.00;102262.06;5044074;28;20022;-64
2022/06/14 00:25:53;;;;;;;16.17;3.70;;;;;;;9.44;100.00;102266.41;5046970;28;20025;-64
2022/06/14 00:28:19;;;;;;;15.38;4.07;;;;;;;9.39;100.00;102268.91;5044684;28;20108;-64
2022/06/14 00:30:49;;;;;;;15.85;3.75;;;;;;;9.35;100.00;102274.00;5045817;28;20036;-66
2022/06/14 00:33:15;;;;;;;16.65;4.13;;;;;;;9.33;100.00;102273.06;5045326;28;20041;-64
2022/06/14 00:35:41;;;;;;;16.55;4.03;;;;;;;9.28;100.00;102275.56;5043647;28;20090;-64
2022/06/14 00:38:09;;;;;;;18.58;4.32;;;;;;;9.19;100.00;102280.56;5045775;28;20112;-64
2022/06/14 00:40:36;;;;;;;18.98;5.10;;;;;;;9.18;100.00;102274.38;5044993;28;20090;-64
2022/06/14 00:43:05;;;;;;;19.33;4.80;;;;;;;9.32;100.00;102266.00;5045399;28;20407;-64
2022/06/14 00:45:30;;;;;;;18.70;5.10;;;;;;;9.23;100.00;102262.25;5045544;28;20017;-64
2022/06/14 00:48:14;;;;;;;18.52;4.75;;;;;;;9.17;100.00;102261.13;5044127;28;20036;-64
2022/06/14 00:50:59;;;;;;;19.65;4.85;;;;;;;9.07;100.00;102260.84;5044591;28;20032;-62
2022/06/14 00:53:38;;;;;;;19.40;5.30;;;;;;;9.03;100.00;102266.84;5041282;28;20044;-62
2022/06/14 00:56:10;;;;;;;20.90;5.28;;;;;;;8.94;100.00;102261.28;5045169;28;20025;-65
2022/06/14 00:58:50;;;;;;;19.17;4.97;;;;;;;8.89;100.00;102255.81;5045990;28;20022;-64
2022/06/14 01:01:29;;;;;;;19.27;5.13;;;;;;;8.86;100.00;102258.38;5039678;28;20024;-64
2022/06/14 01:04:03;;;;;;;19.60;5.35;;;;;;;8.81;100.00;102259.03;5042197;28;20053;-63
2022/06/14 01:06:54;;;;;;;20.27;5.68;;;;;;;8.86;100.00;102262.75;5044686;28;20028;-64
2022/06/14 01:09:35;;;;;;;18.60;5.30;;;;;;;8.85;100.00;102255.69;5040574;28;20064;-64
2022/06/14 01:12:05;;;;;;;18.67;5.25;;;;;;;8.76;100.00;102252.75;5044341;28;20036;-64
2022/06/14 01:14:39;;;;;;;20.50;5.20;;;;;;;8.67;100.00;102259.47;5044908;28;20057;-64
2022/06/14 01:17:05;;;;;;;17.33;4.78;;;;;;;8.60;100.00;102252.19;5044169;28;20112;-64
2022/06/14 01:19:30;;;;;;;19.00;5.13;;;;;;;8.56;100.00;102255.56;5044806;28;20029;-64
2022/06/14 01:22:01;;;;;;;17.73;4.65;;;;;;;8.54;100.00;102252.00;5044798;28;20056;-64
2022/06/14 01:24:28;;;;;;;18.95;5.03;;;;;;;8.57;100.00;102260.00;5044550;28;20372;-63
2022/06/14 01:26:54;;;;;;;20.30;6.13;;;;;;;8.44;100.00;102257.75;5045175;28;20028;-65
2022/06/14 01:29:23;;;;;;;19.42;5.55;;;;;;;8.48;100.00;102259.69;5043095;28;20033;-64
2022/06/14 01:31:51;;;;;;;20.70;6.47;;;;;;;8.52;100.00;102253.69;5045978;28;20033;-63
2022/06/14 01:34:17;;;;;;;20.48;5.80;;;;;;;8.49;100.00;102256.19;5042859;28;20026;-64
2022/06/14 01:36:42;;;;;;;18.80;5.35;;;;;;;8.43;100.00;102251.59;5041479;28;20107;-63
2022/06/14 01:39:13;;;;;;;19.35;5.50;;;;;;;8.38;100.00;102251.41;5046088;28;20084;-63
2022/06/14 01:42:00;;;;;;;19.90;5.60;;;;;;;8.33;100.00;102245.09;5038592;28;20048;-63
2022/06/14 01:44:44;;;;;;;19.58;5.45;;;;;;;8.36;100.00;102245.19;5042842;28;20099;-64
2022/06/14 01:47:31;;;;;;;18.02;5.00;;;;;;;8.28;100.00;102238.75;5038601;28;20026;-64
2022/06/14 01:53:02;;;;;;;19.75;6.00;;;;;;;8.14;100.00;102240.88;5044417;28;20035;-64
2022/06/14 01:55:38;;;;;;;20.77;6.20;;;;;;;8.09;100.00;102239.81;5043627;28;20025;-64
2022/06/14 01:58:25;;;;;;;19.52;5.93;;;;;;;8.08;100.00;102240.69;5045506;28;20028;-64
2022/06/14 02:01:01;;;;;;;21.20;6.00;;;;;;;8.07;100.00;102237.94;5042413;28;20026;-65
2022/06/14 02:07:01;;;;;;;22.42;6.32;;;;;;;8.14;100.00;102226.81;5042063;28;20037;-65
2022/06/14 02:09:35;;;;;;;20.60;6.53;;;;;;;8.12;100.00;102221.47;5042527;28;20376;-61
2022/06/14 02:12:03;;;;;;;20.95;6.63;;;;;;;8.11;100.00;102218.78;5039908;28;20038;-61
2022/06/14 02:14:54;;;;;;;19.38;6.13;;;;;;;8.10;100.00;102219.66;5042973;28;20017;-62
2022/06/14 02:17:29;;;;;;;19.15;5.60;;;;;;;8.00;100.00;102221.03;5041101;28;20040;-61
2022/06/14 02:20:01;;;;;;;22.17;6.03;;;;;;;7.94;100.00;102221.72;5039750;28;20040;-61
2022/06/14 02:22:39;;;;;;;21.40;6.30;;;;;;;7.93;100.00;102225.19;5039329;28;20029;-61
2022/06/14 02:25:12;;;;;;;20.90;6.05;;;;;;;7.93;100.00;102216.41;5040013;28;20056;-61
2022/06/14 02:27:49;;;;;;;19.33;5.95;;;;;;;7.94;100.00;102211.19;5042167;28;20488;-60
2022/06/14 02:30:19;;;;;;;20.33;6.00;;;;;;;7.86;100.00;102210.00;5041137;28;20489;-61
2022/06/14 02:32:50;;;;;;;20.27;5.93;;;;;;;7.78;100.00;102204.44;5040808;28;20483;-62
2022/06/14 02:35:52;;;;;;;19.60;5.90;;;;;;;7.76;100.00;102215.75;5041512;28;20140;-62
2022/06/14 02:38:33;;;;;;;19.63;5.85;;;;;;;7.67;100.00;102211.97;5043456;28;20030;-61
2022/06/14 02:41:08;;;;;;;18.95;5.55;;;;;;;7.63;100.00;102212.66;5038301;28;20025;-64
2022/06/14 02:43:41;;;;;;;20.48;5.95;;;;;;;7.70;100.00;102205.88;5043824;28;20025;-62
2022/06/14 02:46:15;;;;;;;20.90;6.00;;;;;;;7.72;100.00;102196.34;5042856;28;20087;-62
2022/06/14 02:48:59;;;;;;;20.25;6.05;;;;;;;7.70;100.00;102199.72;5043363;28;20021;-62
2022/06/14 02:51:32;;;;;;;19.38;5.47;;;;;;;7.70;100.00;102203.25;5037538;28;20061;-62
2022/06/14 02:54:05;;;;;;;18.05;5.53;;;;;;;7.63;100.00;102198.59;5041004;28;20552;-61
2022/06/14 02:56:33;;;;;;;;;;;;;;;7.65;100.00;102194.31;5039145;28;20443;-64
2022/06/14 02:59:05;;;;;;;20.42;5.80;;;;;;;7.41;100.00;102202.13;5044243;28;20007;-65
2022/06/14 03:02:00;;;;;;;19.67;6.23;;;;;;;7.30;100.00;102205.25;5041861;28;20108;-63
2022/06/14 03:04:34;;;;;;;20.08;5.75;;;;;;;7.22;100.00;102208.41;5036950;28;20244;-65
2022/06/14 03:07:04;;;;;;;19.05;6.20;;;;;;;7.19;100.00;102206.56;5044220;28;20028;-64
2022/06/14 03:09:32;;;;;;;21.58;6.57;;;;;;;7.26;100.00;102205.97;5041762;28;20017;-64
2022/06/14 03:12:03;;;;;;;20.17;6.15;;;;;;;7.28;100.00;102206.94;5044274;28;20029;-63
2022/06/14 03:14:44;;;;;;;20.58;6.18;;;;;;;7.32;100.00;102206.22;5041388;28;20426;-65
2022/06/14 03:17:51;;;;;;;22.20;6.60;;;;;;;7.31;100.00;102206.13;5042586;28;20060;-64
2022/06/14 03:20:35;;;;;;;21.13;6.38;;;;;;;7.30;100.00;102207.00;5041261;28;20021;-64
2022/06/14 03:23:19;;;;;;;21.08;6.50;;;;;;;7.25;100.00;102212.09;5038548;28;20029;-64
2022/06/14 03:25:53;;;;;;;21.58;6.68;;;;;;;7.21;100.00;102212.78;5041517;28;20032;-64
2022/06/14 03:28:41;;;;;;;20.65;6.43;;;;;;;7.16;100.00;102214.31;5043964;28;20036;-64
2022/06/14 03:31:21;;;;;;;22.05;6.53;;;;;;;7.15;100.00;102208.19;5040233;28;20029;-65
2022/06/14 03:34:25;;;;;;;20.75;6.47;;;;;;;7.12;100.00;102209.75;5041512;28;20033;-63
2022/06/14 03:36:52;;;;;;;22.63;6.72;;;;;;;7.10;100.00;102214.09;5038999;28;20415;-64
2022/06/14 03:39:22;;;;;;;21.10;6.60;;;;;;;7.10;100.00;102212.34;5041846;28;20076;-64
2022/06/14 03:41:51;;;;;;;20.35;6.97;;;;;;;7.09;100.00;102213.19;5035012;28;20077;-64
2022/06/14 03:44:19;;;;;;;20.48;6.68;;;;;;;7.17;100.00;102213.50;5041712;28;20029;-64
2022/06/14 03:47:09;;;;;;;20.85;6.32;;;;;;;7.24;100.00;102210.28;5038390;28;20446;-64
2022/06/14 03:49:36;;;;;;;20.02;6.05;;;;;;;7.28;100.00;102206.94;5040426;28;20026;-63
2022/06/14 03:52:20;;;;;;;20.55;5.90;;;;;;;7.32;100.00;102208.84;5040230;28;20021;-64
2022/06/14 03:54:58;;;;;;;20.42;5.90;;;;;;;7.31;100.00;102204.41;5041790;28;20044;-65
2022/06/14 03:57:32;;;;;;;19.15;6.03;;;;;;;7.32;100.00;102210.56;5039332;28;20434;-65
2022/06/14 04:00:27;;;;;;;21.08;6.20;;;;;;;7.34;100.00;102206.28;5039967;28;20430;-64
2022/06/14 04:03:03;;;;;;;20.23;6.45;;;;;;;7.24;100.00;102205.00;5040923;28;20025;-64
2022/06/14 04:05:31;;;;;;;21.35;6.72;;;;;;;7.21;100.00;102214.50;5039912;28;20036;-61
2022/06/14 04:08:17;;;;;;;21.77;6.95;;;;;;;7.20;100.00;102213.63;5040066;28;20033;-62
2022/06/14 04:10:48;;;;;;;20.23;6.75;;;;;;;7.24;100.00;102215.53;5038145;28;20034;-64
2022/06/14 04:13:38;;;;;;;23.10;7.47;;;;;;;7.26;100.00;102218.22;5042448;28;20106;-61
2022/06/14 04:16:17;;;;;;;19.45;6.50;;;;;;;7.28;100.00;102232.31;5042202;28;20079;-61
2022/06/14 04:19:00;;;;;;;21.58;6.78;;;;;;;7.31;100.00;102225.47;5036798;28;20416;-63
2022/06/14 04:21:31;;;;;;;;;;;;;;;7.40;100.00;102230.19;5039630;28;20539;-61
2022/06/14 04:24:07;;;;;;;19.92;7.03;;;;;;;7.43;100.00;102221.53;5042409;28;19913;-63
2022/06/14 04:27:02;;;;;;;21.98;7.20;;;;;;;7.47;100.00;102224.34;5042609;28;20025;-61
2022/06/14 04:29:37;;;;;;;21.45;6.68;;;;;;;7.43;100.00;102227.69;5039975;28;20029;-63
2022/06/14 04:32:26;;;;;;;22.75;7.75;;;;;;;7.49;100.00;102229.66;5044998;28;20033;-61
2022/06/14 04:35:01;;;;;;;22.80;7.18;;;;;;;7.54;100.00;102230.72;5042085;28;20040;-61
2022/06/14 04:37:47;;;;;;;21.40;7.20;;;;;;;7.61;100.00;102232.75;5045363;28;20024;-61
2022/06/14 04:40:19;;;;;;;20.38;7.40;;;;;;;7.72;100.00;102233.19;5039930;28;20121;-62
2022/06/14 04:42:52;;;;;;;21.95;7.28;;;;;;;7.77;100.00;102226.34;5040621;28;20065;-61
2022/06/14 04:45:23;;;;;;;20.92;7.45;;;;;;;7.84;100.00;102228.38;5046683;28;20120;-61
2022/06/14 04:47:55;;;;;;;21.95;6.93;;;;;;;7.94;100.00;102237.50;5044391;28;20026;-61
2022/06/14 04:50:35;;;;;;;23.15;7.82;;;;;;;7.98;100.00;102230.59;5045853;28;20028;-62
2022/06/14 04:53:16;;;;;;;22.40;7.40;;;;;;;8.08;100.00;102234.50;5045964;28;20033;-62
2022/06/14 04:55:59;;;;;;;21.02;7.20;;;;;;;8.15;100.00;102221.59;5039795;28;20037;-64
2022/06/14 04:58:42;;;;;;;22.42;7.38;;;;;;;8.25;100.00;102228.09;5041655;28;20047;-65
2022/06/14 05:01:14;;;;;;;22.60;7.70;;;;;;;8.40;100.00;102226.84;5043524;28;20099;-64
2022/06/14 05:03:47;;;;;;;22.38;7.68;;;;;;;8.51;100.00;102231.69;5039722;28;20068;-61
2022/06/14 05:06:37;;;;;;;21.58;8.05;;;;;;;8.58;100.00;102231.88;5040333;28;20474;-63
2022/06/14 05:09:08;;;;;;;22.92;7.80;;;;;;;8.64;100.00;102238.28;5043525;28;20396;-65
2022/06/14 05:11:43;;;;;;;21.08;7.88;;;;;;;8.77;100.00;102236.09;5046181;28;20100;-64
2022/06/14 05:14:16;;;;;;;22.80;8.07;;;;;;;8.87;100.00;102228.53;5042481;28;20100;-63
2022/06/14 05:16:46;;;;;;;24.35;8.25;;;;;;;8.99;100.00;102238.56;5045174;28;20036;-63
2022/06/14 05:19:15;;;;;;;25.02;8.77;;;;;;;9.10;100.00;102238.03;5043880;28;20029;-64
2022/06/14 05:21:53;;;;;;;25.77;8.60;;;;;;;9.21;100.00;102234.00;5045343;28;20537;-64
2022/06/14 05:24:19;;;;;;;25.25;8.95;;;;;;;9.34;100.00;102238.81;5044928;28;20033;-64
2022/06/14 05:27:23;;;;;;;24.02;8.77;;;;;;;9.41;100.00;102229.38;5040196;28;20372;-67
2022/06/14 05:30:02;;;;;;;23.60;9.00;;;;;;;9.55;100.00;102237.69;5009835;28;20053;-68
2022/06/14 05:32:38;;;;;;;26.45;9.68;;;;;;;9.67;100.00;102238.09;5010594;28;20022;-68
2022/06/14 05:35:29;;;;;;;24.65;9.43;;;;;;;9.77;100.00;102233.94;5010375;28;20048;-67
2022/06/14 05:38:08;;;;;;;25.88;9.55;;;;;;;9.85;100.00;102242.13;5007451;28;20029;-63
2022/06/14 05:40:50;;;;;;;25.77;9.88;;;;;;;9.92;100.00;102241.44;5009709;28;20049;-62
2022/06/14 05:43:21;;;;;;;27.17;9.60;;;;;;;10.04;100.00;102238.25;5009772;28;20048;-61
2022/06/14 05:45:51;;;;;;;25.88;8.93;;;;;;;10.16;100.00;102243.00;5010338;28;20033;-63
2022/06/14 05:48:24;;;;;;;24.83;8.82;;;;;;;10.28;100.00;102238.03;5009793;28;20037;-64
2022/06/14 05:50:54;;;;;;;24.90;9.40;;;;;;;10.37;100.00;102237.44;5009879;28;20074;-63
2022/06/14 05:53:43;;;;;;;24.63;8.77;;;;;;;10.41;100.00;102236.66;5009824;28;20038;-64
2022/06/14 05:56:31;;;;;;;26.88;9.55;;;;;;;10.46;100.00;102233.31;5009928;28;20037;-63
2022/06/14 05:59:14;;;;;;;23.48;8.85;;;;;;;10.59;100.00;102242.47;5010082;28;20535;-64
2022/06/14 06:01:49;;;;;;;25.30;9.00;;;;;;;10.66;100.00;102248.81;5009364;28;20061;-64
2022/06/14 06:04:49;;;;;;;24.63;8.75;;;;;;;10.74;100.00;102244.59;5009644;28;20436;-63
2022/06/14 06:07:20;;;;;;;25.42;8.80;;;;;;;10.88;100.00;102244.06;5035826;28;20400;-63
2022/06/14 06:09:55;;;;;;;25.15;8.77;;;;;;;10.96;100.00;102253.09;5041884;28;20221;-64
2022/06/14 06:12:45;;;;;;;24.10;8.73;;;;;;;10.99;100.00;102245.22;5043089;28;20082;-64
2022/06/14 06:15:20;;;;;;;23.02;9.05;;;;;;;11.06;100.00;102257.75;5040125;28;20036;-64
2022/06/14 06:17:50;;;;;;;23.73;9.10;;;;;;;11.16;100.00;102257.13;5042643;28;20029;-64
2022/06/14 06:20:15;;;;;;;23.17;9.43;;;;;;;11.25;100.00;102252.91;5042459;28;20041;-62
2022/06/14 06:22:50;;;;;;;23.48;8.77;;;;;;;11.28;100.00;102260.94;5044233;28;20037;-61
2022/06/14 06:25:23;;;;;;;22.52;8.68;;;;;;;11.35;100.00;102260.22;5042142;28;20057;-62
2022/06/14 06:28:00;;;;;;;;;;;;;;;11.36;100.00;102254.06;5041586;28;20032;-62
2022/06/14 06:30:34;;;;;;;22.75;8.43;;;;;;;11.50;100.00;102260.59;5041858;28;19964;-62
2022/06/14 06:33:00;;;;;;;23.73;8.73;;;;;;;11.58;100.00;102257.22;5043117;28;20384;-62
2022/06/14 06:35:35;;;;;;;23.35;8.68;;;;;;;11.64;100.00;102257.34;5041375;28;20009;-61
2022/06/14 06:38:15;;;;;;;22.55;8.10;;;;;;;11.78;100.00;102262.94;5040588;28;20124;-64
2022/06/14 06:41:49;;;;;;;23.75;8.35;;;;;;;11.87;100.00;102265.81;5034973;28;20045;-61
2022/06/14 06:43:33;;;;;;;23.73;8.43;;;;;;;11.98;100.00;102266.94;5040819;28;20037;-61
2022/06/14 06:46:01;;;;;;;23.77;8.30;;;;;;;12.05;100.00;102260.03;5040821;28;20446;-61
2022/06/14 06:48:41;;;;;;;22.42;8.52;;;;;;;12.19;100.00;102257.66;5041510;28;20029;-61
2022/06/14 06:51:10;;;;;;;23.63;7.60;;;;;;;12.25;100.00;102263.09;5041949;28;20033;-62
2022/06/14 06:53:42;;;;;;;21.05;7.50;;;;;;;12.38;100.00;102266.88;5037683;28;20029;-62
2022/06/14 06:56:15;;;;;;;21.95;7.63;;;;;;;12.45;100.00;102271.44;5038117;28;20031;-62
2022/06/14 06:58:55;;;;;;;21.35;6.65;;;;;;;12.50;100.00;102264.44;5041873;28;20029;-61
2022/06/14 07:01:25;;;;;;;19.10;5.40;;;;;;;12.59;100.00;102265.50;5073120;28;20542;-61
2022/06/14 07:04:05;;;;;;;19.10;4.57;;;;;;;12.65;100.00;102261.19;5041821;28;20037;-61
2022/06/14 07:06:38;;;;;;;17.17;4.50;;;;;;;12.76;100.00;102264.03;5039356;28;20061;-61
2022/06/14 07:09:34;;;;;;;18.17;5.00;;;;;;;12.79;100.00;102261.44;5039080;28;20025;-62
2022/06/14 07:12:10;;;;;;;18.48;4.32;;;;;;;12.88;100.00;102258.06;5041852;28;20492;-62
2022/06/14 07:14:55;;;;;;;13.70;3.28;;;;;;;12.99;100.00;102266.19;5041595;28;20029;-61
2022/06/14 07:17:39;;;;;;;14.98;2.85;;;;;;;13.04;93.18;102261.88;5039505;28;20026;-61
2022/06/14 07:20:30;;;;;;;14.48;3.40;;;;;;;13.15;94.78;102270.00;5041708;28;20104;-62
2022/06/14 07:23:14;;;;;;;16.80;4.15;;;;;;;13.31;95.52;102265.81;5040827;28;20380;-62
2022/06/14 07:26:08;;;;;;;16.45;4.10;;;;;;;13.37;99.46;102268.63;5034435;28;20080;-64
2022/06/14 07:29:09;;;;;;;16.65;3.65;;;;;;;13.45;92.39;102256.34;5008410;28;20046;-65
2022/06/14 07:31:44;;;;;;;15.18;3.95;;;;;;;13.49;96.21;102266.16;4971085;28;20039;-62
2022/06/14 07:34:13;;;;;;;19.40;4.63;;;;;;;13.58;96.93;102263.59;4974812;28;20035;-62
2022/06/14 07:36:56;;;;;;;16.95;4.60;;;;;;;13.60;96.00;102258.31;4974487;28;20073;-62
2022/06/14 07:39:33;;;;;;;18.30;4.75;;;;;;;13.70;97.32;102254.03;4970508;28;20389;-62
2022/06/14 07:42:18;;;;;;;14.57;3.50;;;;;;;13.77;92.99;102261.22;4974459;28;20105;-61
2022/06/14 07:45:07;;;;;;;16.60;3.50;;;;;;;13.86;91.27;102257.78;4971996;28;20034;-61
2022/06/14 07:47:41;;;;;;;15.82;3.80;;;;;;;14.00;95.01;102257.97;4971837;28;20045;-62
2022/06/14 07:50:27;;;;;;;14.63;3.25;;;;;;;14.07;91.23;102260.72;4971937;28;20027;-62
2022/06/14 07:52:56;;;;;;;16.23;3.40;;;;;;;14.13;87.08;102250.16;4972728;28;20512;-61
2022/06/14 07:55:30;;;;;;;15.13;3.17;;;;;;;14.25;88.85;102254.72;4975513;28;20040;-62
2022/06/14 07:58:05;;;;;;;15.23;3.30;;;;;;;14.33;86.89;102259.25;4974593;28;20023;-61
2022/06/14 08:03:33;;;;;;;15.30;2.90;;;;;;;14.55;86.25;102253.28;4968853;28;20133;-63
2022/06/14 08:06:01;;;;;;;15.45;2.88;;;;;;;14.70;84.26;102251.69;4987209;28;20123;-65
2022/06/14 08:08:35;;;;;;;15.57;3.30;;;;;;;14.78;83.06;102253.53;5036081;28;20025;-63
2022/06/14 08:11:07;;;;;;;13.25;3.00;;;;;;;14.87;83.25;102247.41;5034697;28;20033;-63
2022/06/14 08:13:40;;;;;;;13.38;3.03;;;;;;;14.96;82.15;102251.94;5034988;28;20032;-64
2022/06/14 08:16:08;;;;;;;12.70;3.30;;;;;;;15.07;77.67;102241.34;5033820;28;20018;-62
2022/06/14 08:18:42;;;;;;;13.73;3.30;;;;;;;15.24;80.64;102249.47;5034696;28;20113;-63
2022/06/14 08:21:11;;;;;;;14.57;3.42;;;;;;;15.37;81.71;102245.13;5033835;28;20025;-62
2022/06/14 08:24:03;;;;;;;17.27;3.50;;;;;;;15.51;81.69;102243.44;5036378;28;20124;-64
2022/06/14 08:26:50;;;;;;;15.13;3.40;;;;;;;15.60;79.90;102240.81;5041648;28;20029;-63
2022/06/14 08:29:24;;;;;;;13.25;3.00;;;;;;;15.66;78.56;102235.50;5042699;28;20068;-63
2022/06/14 08:32:00;;;;;;;12.82;3.13;;;;;;;15.81;76.93;102236.50;5043632;28;20045;-64
2022/06/14 08:34:41;;;;;;;13.63;3.40;;;;;;;15.69;74.71;102235.53;5044602;28;20483;-62
2022/06/14 08:37:32;;;;;;;17.08;3.60;;;;;;;15.87;77.95;102233.88;5046943;28;20021;-63
2022/06/14 08:40:25;;;;;;;14.05;3.47;;;;;;;16.07;78.35;102222.41;5046233;28;20087;-64
2022/06/14 08:43:02;;;;;;;15.95;3.63;;;;;;;16.19;75.50;102230.44;5044814;28;20109;-62
2022/06/14 08:45:44;;;;;;;14.57;3.45;;;;;;;16.23;75.98;102232.22;5048018;28;20029;-64
2022/06/14 08:48:24;;;;;;;15.00;3.65;;;;;;;16.39;76.95;102231.38;5039531;28;20515;-63
2022/06/14 08:51:09;;;;;;;16.85;3.80;;;;;;;16.48;75.49;102229.63;5040603;28;20131;-62
2022/06/14 08:54:02;;;;;;;15.52;3.70;;;;;;;16.61;72.99;102230.53;5045821;28;20039;-64
2022/06/14 08:56:52;;;;;;;14.57;3.90;;;;;;;16.78;71.41;102233.22;5043477;28;20412;-62
2022/06/14 08:59:42;;;;;;;17.30;3.75;;;;;;;16.95;72.92;102231.47;5041850;28;20037;-62
2022/06/14 09:02:26;;;;;;;16.60;3.72;;;;;;;17.12;72.86;102239.47;5037933;28;20025;-63
2022/06/14 09:05:13;;;;;;;11.90;3.55;;;;;;;17.10;71.18;102230.56;5045070;28;20029;-63
2022/06/14 09:08:03;;;;;;;16.85;3.65;;;;;;;17.16;67.75;102233.22;5042515;28;20059;-65
2022/06/14 09:10:57;;;;;;;16.67;3.95;;;;;;;17.21;69.05;102226.13;5045814;28;20099;-62
2022/06/14 09:14:07;;;;;;;14.73;3.83;;;;;;;17.30;69.37;102219.88;5041267;28;20033;-63
2022/06/14 09:16:40;;;;;;;18.23;4.05;;;;;;;17.49;68.86;102219.78;5045078;28;20025;-63
2022/06/14 09:19:28;;;;;;;16.42;3.70;;;;;;;17.64;68.25;102227.78;5041093;28;20033;-62
2022/06/14 09:22:07;;;;;;;15.57;3.83;;;;;;;17.86;68.71;102219.69;5042280;28;20436;-62
2022/06/14 09:24:53;;;;;;;15.60;3.80;;;;;;;18.11;68.27;102213.38;5041351;28;20036;-63
2022/06/14 09:27:52;;;;;;;17.52;3.80;;;;;;;18.37;67.46;102223.00;5043410;28;20069;-62
2022/06/14 09:30:36;;;;;;;15.57;3.85;;;;;;;18.41;67.06;102221.22;5041930;28;20079;-63
2022/06/14 09:33:23;;;;;;;16.25;3.70;;;;;;;18.50;64.74;102218.47;5053141;28;20044;-63
2022/06/14 09:36:30;;;;;;;15.85;3.80;;;;;;;18.53;62.19;102220.25;5036330;28;20055;-63
2022/06/14 09:39:14;;;;;;;17.02;3.97;;;;;;;18.43;62.89;102214.94;5030069;28;20041;-65
2022/06/14 09:42:08;;;;;;;17.52;3.60;;;;;;;18.41;63.98;102211.38;5030006;28;20470;-63
2022/06/14 09:45:14;;;;;;;16.45;3.53;;;;;;;18.64;63.86;102213.03;4954081;28;20438;-67
2022/06/14 09:48:02;;;;;;;14.45;3.30;;;;;;;19.02;62.43;102209.16;4951859;28;20035;-68
2022/06/14 09:50:59;;;;;;;16.10;3.60;;;;;;;19.20;62.53;102196.47;4922424;29;20039;-68
2022/06/14 09:53:53;;;;;;;15.38;3.50;;;;;;;19.41;63.24;102198.03;4924291;29;20471;-66
2022/06/14 09:56:40;;;;;;;16.30;4.00;;;;;;;19.45;58.37;102197.09;4919736;29;20056;-68
2022/06/14 09:59:35;;;;;;;17.05;4.22;;;;;;;19.65;59.02;102188.81;4921616;29;20032;-67
2022/06/14 10:02:25;;;;;;;17.63;4.30;;;;;;;19.92;59.97;102192.06;4922559;29;20122;-66
2022/06/14 10:05:00;;;;;;;16.25;4.05;;;;;;;20.44;55.10;102199.38;4922246;29;20032;-66
2022/06/14 10:07:45;;;;;;;16.20;3.95;;;;;;;21.82;50.54;102188.84;4922943;29;20887;-64
2022/06/14 10:10:21;;;;;;;15.50;4.00;;;;;;;24.00;42.55;102190.44;4935034;29;20040;-65
2022/06/14 10:13:20;;;;;;;18.60;4.10;;;;;;;25.90;38.59;102186.56;4938876;29;20057;-64
2022/06/14 10:16:13;;;;;;;14.15;3.90;;;;;;;27.29;34.23;102193.50;4942815;29;20039;-65
2022/06/14 10:19:06;;;;;;;13.35;3.60;;;;;;;28.46;30.60;102187.13;4941047;29;20058;-65
2022/06/14 10:21:55;;;;;;;18.20;4.10;;;;;;;28.69;27.44;102184.16;4968406;28;20513;-62
2022/06/14 10:24:25;;;;;;;14.80;3.47;;;;;;;29.28;28.69;102180.25;4981372;28;20461;-62
2022/06/14 10:30:18;;;;;;;16.90;4.22;;;;;;;29.34;29.83;102169.91;5043148;28;20048;-62
2022/06/14 10:32:55;;;;;;;15.50;4.00;;;;;;;28.90;28.90;102162.22;5029194;28;20057;-62
2022/06/14 10:35:28;;;;;;;15.70;4.32;;;;;;;29.45;26.05;102160.28;5033890;28;20038;-62
2022/06/14 10:38:31;;;;;;;15.40;4.10;;;;;;;30.27;28.82;102156.53;5035541;28;20029;-62
2022/06/14 10:41:04;;;;;;;15.82;4.30;;;;;;;30.47;25.09;102158.13;5036600;28;20057;-62
2022/06/14 10:44:14;;;;;;;15.68;4.50;;;;;;;30.30;27.10;102150.03;5041587;28;20423;-62
2022/06/14 10:47:05;;;;;;;15.07;3.90;;;;;;;31.07;25.63;102148.19;5037870;28;20442;-62
2022/06/14 10:49:45;;;;;;;14.70;4.07;;;;;;;31.52;24.85;102143.50;4942371;29;20153;-63
2022/06/14 10:52:19;;;;;;;14.32;4.00;;;;;;;32.05;23.63;102142.84;4942680;29;20039;-62
2022/06/14 10:54:59;;;;;;;15.63;3.75;;;;;;;32.22;23.70;102145.34;4944221;29;20074;-62
2022/06/14 10:57:37;;;;;;;16.92;3.95;;;;;;;32.55;22.36;102140.41;4938541;29;20039;-63
2022/06/14 11:00:29;;;;;;;15.73;3.90;;;;;;;33.19;24.84;102135.06;4943731;29;20035;-63
2022/06/14 11:03:31;;;;;;;16.27;4.20;;;;;;;32.79;24.04;102137.88;4938259;29;20044;-63
2022/06/14 11:06:26;;;;;;;15.57;4.05;;;;;;;31.94;24.35;102129.91;4938820;29;20035;-63
2022/06/14 11:09:01;;;;;;;15.38;3.90;;;;;;;33.04;22.68;102119.72;4945842;28;20039;-63
2022/06/14 11:11:57;;;;;;;15.43;3.50;;;;;;;34.01;22.77;102124.50;4960750;28;20023;-64
2022/06/14 11:14:45;;;;;;;16.40;3.72;;;;;;;34.56;21.80;102127.66;4960350;28;20043;-63
2022/06/14 11:17:10;;;;;;;16.33;3.60;;;;;;;34.71;20.11;102120.06;4962679;28;20020;-63
2022/06/14 11:20:06;;;;;;;13.03;3.60;;;;;;;34.54;21.71;102128.75;4962128;28;20039;-64
2022/06/14 11:23:26;;;;;;;15.85;3.78;;;;;;;33.79;22.54;102121.66;4961218;28;20290;-63
2022/06/14 11:26:06;;;;;;;13.75;3.72;;;;;;;33.43;20.76;102104.16;4978279;28;20033;-63
2022/06/14 11:28:53;;;;;;;19.00;4.13;;;;;;;33.67;21.62;102107.81;5037191;28;20388;-62
2022/06/14 11:31:27;;;;;;;15.77;3.72;;;;;;;33.63;20.95;102103.56;5038987;28;20037;-64
2022/06/14 11:34:10;;;;;;;22.00;3.92;;;;;;;33.08;22.55;102102.94;5034931;28;20026;-62
2022/06/14 11:37:03;;;;;;;12.00;3.30;;;;;;;33.39;21.24;102097.16;5038095;28;20156;-63
2022/06/14 11:39:43;;;;;;;13.55;3.30;;;;;;;33.63;21.32;102100.81;5036425;28;20083;-63
2022/06/14 11:42:25;;;;;;;15.45;3.30;;;;;;;34.34;21.50;102097.38;5044195;28;20059;-62
2022/06/14 11:45:25;;;;;;;17.77;4.00;;;;;;;35.17;20.83;102092.69;5038792;28;20060;-63
2022/06/14 11:48:04;;;;;;;15.25;3.50;;;;;;;33.40;20.74;102080.59;5038471;28;20077;-63
2022/06/14 11:50:48;;;;;;;14.88;3.40;;;;;;;32.56;22.56;102090.19;5040456;28;20376;-63
2022/06/14 11:53:22;;;;;;;13.45;3.50;;;;;;;32.40;22.81;102084.91;5043122;28;20041;-63
2022/06/14 11:55:56;;;;;;;13.50;3.60;;;;;;;32.79;21.35;102080.41;5045289;28;20141;-63
2022/06/14 11:58:32;;;;;;;13.18;3.50;;;;;;;33.51;21.46;102074.34;5038360;28;20151;-66
2022/06/14 12:01:14;;;;;;;13.70;3.40;;;;;;;34.02;21.86;102074.16;5040262;28;20095;-65
2022/06/14 12:04:07;;;;;;;14.25;3.47;;;;;;;34.40;20.99;102084.06;5045929;28;20069;-63
2022/06/14 12:06:59;;;;;;;14.25;3.47;;;;;;;35.17;20.08;102077.09;5042537;28;20024;-63
2022/06/14 12:09:40;;;;;;;13.32;4.00;;;;;;;34.95;18.77;102077.09;5044919;28;20030;-66
2022/06/14 12:12:30;;;;;;;18.25;4.07;;;;;;;35.37;19.39;102072.75;5039797;28;20477;-63
2022/06/14 12:15:21;;;;;;;14.02;3.50;;;;;;;35.93;19.67;102079.16;5044892;28;20033;-64
2022/06/14 12:17:51;;;;;;;14.68;3.90;;;;;;;35.17;19.37;102071.63;5042525;28;20033;-66
2022/06/14 12:20:20;;;;;;;16.42;4.07;;;;;;;34.23;20.32;102065.25;5046222;28;20028;-64
2022/06/14 12:23:09;;;;;;;15.07;3.80;;;;;;;34.35;21.61;102068.94;5044706;28;20033;-65
2022/06/14 12:28:57;;;;;;;14.00;4.07;;;;;;;34.96;20.17;102068.72;5040013;28;20064;-63